createdAt,value
2022-08-08T00:00:53.014Z,1.55
2022-08-08T00:02:50.221Z,1.25
2022-08-08T00:05:44.064Z,1.55
2022-08-08T00:08:49.195Z,1.55
2022-08-08T00:11:46.964Z,1.25
2022-08-08T00:14:59.872Z,1.30
2022-08-08T00:18:03.538Z,1.10
2022-08-08T00:20:56.380Z,1.23
2022-08-08T00:23:51.163Z,1.08
2022-08-08T00:26:40.114Z,1.20
2022-08-08T00:29:17.226Z,1.40
2022-08-08T00:32:16.410Z,1.33
2022-08-08T00:35:20.360Z,1.35
2022-08-08T00:38:16.739Z,1.40
2022-08-08T00:41:45.074Z,1.58
2022-08-08T00:45:02.952Z,1.60
2022-08-08T00:48:29.229Z,1.35
2022-08-08T00:51:21.521Z,1.35
2022-08-08T00:54:17.567Z,1.33
2022-08-08T00:57:35.993Z,1.42
2022-08-08T01:00:37.924Z,1.20
2022-08-08T01:04:09.159Z,1.35
2022-08-08T01:07:12.132Z,1.00
2022-08-08T01:10:32.126Z,1.25
2022-08-08T01:13:43.698Z,1.50
2022-08-08T01:17:01.467Z,1.33
2022-08-08T01:20:14.968Z,1.30
2022-08-08T01:24:05.326Z,1.38
2022-08-08T01:26:55.002Z,1.40
2022-08-08T01:30:11.279Z,1.23
2022-08-08T01:33:16.231Z,1.48
2022-08-08T01:36:50.770Z,1.50
2022-08-08T01:39:57.585Z,1.50
2022-08-08T01:43:21.925Z,1.15
2022-08-08T01:46:30.359Z,1.13
2022-08-08T01:49:22.886Z,1.67
2022-08-08T01:53:01.781Z,1.45
2022-08-08T01:56:30.924Z,1.33
2022-08-08T01:59:19.028Z,1.05
2022-08-08T02:02:41.899Z,1.30
2022-08-08T02:05:56.632Z,1.40
2022-08-08T02:08:56.649Z,1.20
2022-08-08T02:11:59.794Z,1.40
2022-08-08T02:15:11.262Z,1.25
2022-08-08T02:18:10.267Z,1.30
2022-08-08T02:21:26.540Z,1.20
2022-08-08T02:24:09.832Z,1.35
2022-08-08T02:27:07.311Z,1.60
2022-08-08T02:30:01.770Z,1.20
2022-08-08T02:32:44.375Z,2.00
2022-08-08T02:36:03.734Z,1.30
2022-08-08T02:39:40.706Z,1.95
2022-08-08T02:42:41.493Z,1.60
2022-08-08T02:45:26.647Z,1.50
2022-08-08T02:48:30.057Z,1.48
2022-08-08T02:51:55.011Z,1.65
2022-08-08T02:55:00.144Z,1.65
2022-08-08T02:58:09.642Z,2.20
2022-08-08T03:01:20.812Z,1.98
2022-08-08T03:05:02.763Z,2.08
2022-08-08T03:08:07.060Z,2.03
2022-08-08T03:11:13.981Z,2.15
2022-08-08T03:16:02.682Z,1.85
2022-08-08T03:17:10.341Z,1.98
2022-08-08T03:20:08.252Z,1.70
2022-08-08T03:22:56.326Z,1.48
2022-08-08T03:25:35.685Z,1.83
2022-08-08T03:28:32.219Z,1.60
2022-08-08T03:31:13.698Z,1.80
2022-08-08T03:33:54.590Z,2.08
2022-08-08T03:36:27.563Z,1.70
2022-08-08T03:39:15.179Z,1.60
2022-08-08T03:42:13.092Z,2.13
2022-08-08T03:44:35.285Z,1.88
2022-08-08T03:47:07.124Z,1.52
2022-08-08T03:50:00.589Z,1.60
2022-08-08T03:52:32.053Z,1.80
2022-08-08T03:55:19.700Z,2.20
2022-08-08T03:58:32.186Z,1.70
2022-08-08T04:00:56.528Z,1.48
2022-08-08T04:03:59.786Z,2.13
2022-08-08T04:06:22.061Z,1.70
2022-08-08T04:08:50.192Z,2.13
2022-08-08T04:11:23.399Z,2.00
2022-08-08T04:14:04.272Z,1.80
2022-08-08T04:16:40.968Z,1.63
2022-08-08T04:19:25.146Z,1.70
2022-08-08T04:21:54.207Z,1.90
2022-08-08T04:24:29.226Z,1.90
2022-08-08T04:26:59.881Z,1.60
2022-08-08T04:29:33.161Z,1.63
2022-08-08T04:32:06.886Z,1.88
2022-08-08T04:34:49.471Z,2.33
2022-08-08T04:37:26.373Z,1.80
2022-08-08T04:40:06.652Z,2.13
2022-08-08T04:42:36.948Z,2.40
2022-08-08T04:45:06.483Z,2.28
2022-08-08T04:47:36.467Z,2.53
2022-08-08T04:50:23.663Z,3.08
2022-08-08T04:55:47.343Z,2.40
2022-08-08T04:58:21.724Z,2.33
2022-08-08T05:00:49.851Z,2.53
2022-08-08T05:03:18.688Z,2.10
2022-08-08T05:06:13.462Z,2.38
2022-08-08T05:08:51.639Z,2.10
2022-08-08T05:11:24.635Z,2.42
2022-08-08T05:14:00.765Z,3.00
2022-08-08T05:16:51.209Z,2.75
2022-08-08T05:20:11.495Z,2.83
2022-08-08T05:22:09.994Z,2.88
2022-08-08T05:24:38.855Z,2.13
2022-08-08T05:27:07.853Z,2.00
2022-08-08T05:29:36.833Z,2.20
2022-08-08T05:32:09.378Z,1.83
2022-08-08T05:34:51.257Z,2.92
2022-08-08T05:37:49.097Z,2.00
2022-08-08T05:40:17.942Z,1.88
2022-08-08T05:42:54.531Z,2.53
2022-08-08T05:45:30.822Z,2.10
2022-08-08T05:48:08.286Z,1.92
2022-08-08T05:50:39.042Z,1.75
2022-08-08T05:53:53.941Z,1.80
2022-08-08T05:56:07.783Z,2.30
2022-08-08T05:58:53.777Z,2.13
2022-08-08T06:01:55.874Z,2.15
2022-08-08T06:04:22.411Z,1.98
2022-08-08T06:07:00.637Z,2.50
2022-08-08T06:09:59.943Z,2.70
2022-08-08T06:12:29.642Z,2.63
2022-08-08T06:15:03.041Z,2.35
2022-08-08T06:17:51.436Z,2.30
2022-08-08T06:20:26.561Z,2.30
2022-08-08T06:22:56.155Z,2.50
2022-08-08T06:25:33.411Z,2.58
2022-08-08T06:28:18.318Z,2.60
2022-08-08T06:30:55.547Z,2.55
2022-08-08T06:33:37.282Z,2.50
2022-08-08T06:36:53.164Z,2.60
2022-08-08T06:39:22.542Z,3.22
2022-08-08T06:41:56.683Z,2.42
2022-08-08T06:44:26.433Z,3.10
2022-08-08T06:46:59.292Z,3.15
2022-08-08T06:49:54.804Z,3.17
2022-08-08T06:52:17.819Z,3.25
2022-08-08T06:54:48.718Z,3.45
2022-08-08T06:57:16.576Z,3.45
2022-08-08T07:00:03.772Z,3.80
2022-08-08T07:02:36.486Z,3.40
2022-08-08T07:05:20.282Z,3.42
2022-08-08T07:07:57.153Z,3.65
2022-08-08T07:10:26.451Z,2.40
2022-08-08T07:13:04.754Z,3.42
2022-08-08T07:16:04.370Z,3.20
2022-08-08T07:19:08.648Z,3.28
2022-08-08T07:22:05.581Z,3.08
2022-08-08T07:25:02.400Z,3.00
2022-08-08T07:28:01.837Z,2.53
2022-08-08T07:30:31.604Z,2.83
2022-08-08T07:33:01.272Z,3.58
2022-08-08T07:35:30.971Z,3.00
2022-08-08T07:38:09.666Z,2.00
2022-08-08T07:40:43.517Z,2.78
2022-08-08T07:43:13.605Z,2.30
2022-08-08T07:46:05.401Z,2.55
2022-08-08T07:48:32.085Z,2.42
2022-08-08T07:51:02.652Z,2.00
2022-08-08T07:56:53.375Z,2.03
2022-08-08T07:59:23.623Z,2.22
2022-08-08T08:02:34.951Z,2.00
2022-08-08T08:05:00.828Z,1.83
2022-08-08T08:07:38.839Z,1.75
2022-08-08T08:10:12.751Z,1.90
2022-08-08T08:12:45.406Z,2.28
2022-08-08T08:15:18.488Z,1.60
2022-08-08T08:17:55.488Z,1.48
2022-08-08T08:20:30.650Z,1.73
2022-08-08T08:22:58.327Z,2.00
2022-08-08T08:25:42.350Z,1.73
2022-08-08T08:28:17.134Z,1.92
2022-08-08T08:30:53.579Z,1.08
2022-08-08T08:33:21.424Z,1.23
2022-08-08T08:36:20.454Z,1.30
2022-08-08T08:38:49.383Z,1.20
2022-08-08T08:41:22.327Z,1.33
2022-08-08T08:43:52.166Z,1.58
2022-08-08T08:46:20.414Z,1.60
2022-08-08T08:48:55.235Z,1.45
2022-08-08T08:51:33.528Z,1.23
2022-08-08T08:54:03.564Z,1.30
2022-08-08T08:56:34.456Z,1.10
2022-08-08T08:59:09.116Z,1.45
2022-08-08T09:01:45.697Z,1.20
2022-08-08T09:04:30.297Z,1.08
2022-08-08T09:07:13.013Z,0.90
2022-08-08T09:09:48.066Z,1.02
2022-08-08T09:12:25.514Z,1.30
2022-08-08T09:14:57.972Z,1.13
2022-08-08T09:17:40.785Z,0.95
2022-08-08T09:21:56.514Z,1.20
2022-08-08T09:23:00.336Z,1.25
2022-08-08T09:25:35.885Z,1.08
2022-08-08T09:28:37.216Z,1.20
2022-08-08T09:31:42.738Z,1.48
2022-08-08T09:34:32.678Z,1.17
2022-08-08T09:37:57.091Z,1.50
2022-08-08T09:40:10.996Z,1.10
2022-08-08T09:42:51.583Z,0.90
2022-08-08T09:46:00.911Z,1.10
2022-08-08T09:48:36.279Z,1.48
2022-08-08T09:51:06.196Z,1.20
2022-08-08T09:54:09.661Z,1.15
2022-08-08T09:56:47.156Z,1.08
2022-08-08T10:00:01.995Z,1.00
2022-08-08T10:02:24.818Z,1.20
2022-08-08T10:04:52.834Z,1.17
2022-08-08T10:07:24.099Z,1.10
2022-08-08T10:09:59.234Z,1.20
2022-08-08T10:12:53.321Z,1.20
2022-08-08T10:15:36.184Z,1.38
2022-08-08T10:18:10.646Z,1.42
2022-08-08T10:21:23.138Z,1.20
2022-08-08T10:23:58.885Z,1.35
2022-08-08T10:26:57.071Z,1.23
2022-08-08T10:30:01.420Z,0.90
2022-08-08T10:32:34.385Z,1.35
2022-08-08T10:35:20.633Z,1.25
2022-08-08T10:38:05.840Z,1.02
2022-08-08T10:40:38.995Z,1.33
2022-08-08T10:43:09.769Z,1.00
2022-08-08T10:45:56.275Z,1.48
2022-08-08T10:48:57.013Z,1.42
2022-08-08T10:51:47.537Z,1.58
2022-08-08T10:54:26.909Z,1.05
2022-08-08T10:57:08.835Z,1.05
2022-08-08T10:59:39.892Z,1.15
2022-08-08T11:02:12.109Z,1.48
2022-08-08T11:04:53.160Z,1.13
2022-08-08T11:08:31.217Z,1.50
2022-08-08T11:10:28.676Z,1.70
2022-08-08T11:13:28.092Z,1.38
2022-08-08T11:16:07.793Z,1.58
2022-08-08T11:18:39.881Z,1.20
2022-08-08T11:21:10.533Z,1.20
2022-08-08T11:24:02.312Z,1.67
2022-08-08T11:26:34.312Z,1.60
2022-08-08T11:29:07.655Z,1.13
2022-08-08T11:31:51.916Z,1.25
2022-08-08T11:34:22.893Z,1.52
2022-08-08T11:36:58.589Z,1.23
2022-08-08T11:39:27.439Z,1.20
2022-08-08T11:42:09.195Z,1.40
2022-08-08T11:44:38.322Z,1.30
2022-08-08T11:49:45.532Z,1.13
2022-08-08T11:54:54.874Z,1.13
2022-08-08T11:57:35.003Z,1.40
2022-08-08T12:00:07.580Z,1.27
2022-08-08T12:02:51.403Z,1.85
2022-08-08T12:05:22.917Z,1.60
2022-08-08T12:07:55.770Z,1.52
2022-08-08T12:13:05.397Z,1.60
2022-08-08T12:15:43.053Z,2.03
2022-08-08T12:20:54.966Z,1.60
2022-08-08T12:23:40.110Z,2.00
2022-08-08T12:26:16.850Z,1.35
2022-08-08T12:28:57.179Z,1.50
2022-08-08T12:31:39.096Z,1.40
2022-08-08T12:34:57.581Z,1.23
2022-08-08T12:37:39.981Z,1.52
2022-08-08T12:40:22.868Z,1.40
2022-08-08T12:42:53.262Z,1.50
2022-08-08T12:45:58.956Z,1.40
2022-08-08T12:48:37.847Z,1.30
2022-08-08T12:51:11.208Z,1.60
2022-08-08T12:53:57.606Z,1.88
2022-08-08T12:56:38.404Z,1.90
2022-08-08T12:59:16.143Z,1.70
2022-08-08T13:01:55.132Z,1.40
2022-08-08T13:04:32.845Z,1.40
2022-08-08T13:07:11.860Z,1.30
2022-08-08T13:10:01.962Z,1.70
2022-08-08T13:12:47.004Z,1.17
2022-08-08T13:15:19.500Z,1.33
2022-08-08T13:18:07.900Z,1.80
2022-08-08T13:20:44.627Z,1.55
2022-08-08T13:23:30.082Z,1.60
2022-08-08T13:26:04.128Z,1.63
2022-08-08T13:28:32.734Z,1.20
2022-08-08T13:31:05.159Z,1.45
2022-08-08T13:33:42.607Z,1.20
2022-08-08T13:36:11.298Z,1.70
2022-08-08T13:38:41.838Z,1.30
2022-08-08T13:41:16.053Z,1.35
2022-08-08T13:43:47.305Z,1.33
2022-08-08T13:46:27.152Z,1.30
2022-08-08T13:50:33.245Z,1.25
2022-08-08T13:52:09.465Z,1.33
2022-08-08T13:54:44.347Z,1.30
2022-08-08T13:57:17.241Z,1.50
2022-08-08T13:59:49.175Z,1.30
2022-08-08T14:02:32.995Z,1.75
2022-08-08T14:05:19.881Z,1.10
2022-08-08T14:07:52.331Z,1.20
2022-08-08T14:10:33.823Z,1.40
2022-08-08T14:13:30.783Z,1.35
2022-08-08T14:16:04.680Z,1.52
2022-08-08T14:18:52.058Z,1.55
2022-08-08T14:21:31.297Z,1.45
2022-08-08T14:24:10.490Z,1.40
2022-08-08T14:26:46.395Z,1.38
2022-08-08T14:29:28.785Z,1.20
2022-08-08T14:32:10.564Z,1.42
2022-08-08T14:34:42.372Z,1.58
2022-08-08T14:37:12.853Z,1.10
2022-08-08T14:40:06.776Z,1.30
2022-08-08T14:42:55.177Z,1.50
2022-08-08T14:46:01.931Z,1.55
2022-08-08T14:48:34.942Z,1.77
2022-08-08T14:51:07.602Z,1.60
2022-08-08T14:53:54.569Z,2.13
2022-08-08T14:56:25.715Z,1.52
2022-08-08T14:58:54.688Z,1.60
2022-08-08T15:01:40.922Z,1.27
2022-08-08T15:04:11.057Z,1.35
2022-08-08T15:06:39.120Z,1.60
2022-08-08T15:09:09.554Z,1.40
2022-08-08T15:11:43.274Z,1.30
2022-08-08T15:14:15.070Z,1.58
2022-08-08T15:16:42.800Z,1.70
2022-08-08T15:19:11.712Z,1.50
2022-08-08T15:21:44.842Z,1.10
2022-08-08T15:24:14.480Z,1.42
2022-08-08T15:26:46.736Z,1.80
2022-08-08T15:29:22.721Z,1.25
2022-08-08T15:32:03.795Z,1.35
2022-08-08T15:34:40.663Z,1.50
2022-08-08T15:37:08.054Z,1.45
2022-08-08T15:39:39.856Z,1.50
2022-08-08T15:44:58.862Z,1.50
2022-08-08T15:47:26.169Z,1.20
2022-08-08T15:49:53.417Z,1.42
2022-08-08T15:52:22.811Z,1.30
2022-08-08T15:57:21.655Z,1.58
2022-08-08T16:00:25.242Z,1.70
2022-08-08T16:02:37.560Z,1.77
2022-08-08T16:05:13.887Z,2.00
2022-08-08T16:07:51.402Z,1.65
2022-08-08T16:13:09.455Z,1.85
2022-08-08T16:13:29.808Z,1.77
2022-08-08T16:15:57.552Z,1.77
2022-08-08T16:18:30.344Z,2.15
2022-08-08T16:21:00.724Z,2.20
2022-08-08T16:23:31.556Z,2.40
2022-08-08T16:26:04.161Z,1.77
2022-08-08T16:31:07.978Z,1.92
2022-08-08T16:33:39.429Z,1.60
2022-08-08T16:36:12.841Z,1.83
2022-08-08T16:38:47.170Z,2.03
2022-08-08T16:41:20.126Z,2.10
2022-08-08T16:43:50.638Z,1.92
2022-08-08T16:46:42.781Z,1.85
2022-08-08T16:49:09.464Z,2.33
2022-08-08T16:55:01.104Z,2.40
2022-08-08T16:55:03.427Z,2.33
2022-08-08T16:57:22.711Z,1.90
2022-08-08T16:59:52.525Z,2.40
2022-08-08T17:02:33.576Z,2.10
2022-08-08T17:05:07.952Z,1.70
2022-08-08T17:07:37.527Z,2.30
2022-08-08T17:10:06.820Z,2.35
2022-08-08T17:12:36.425Z,3.10
2022-08-08T17:15:17.189Z,2.45
2022-08-08T17:18:02.292Z,2.75
2022-08-08T17:20:32.683Z,1.75
2022-08-08T17:23:16.597Z,1.85
2022-08-08T17:25:53.686Z,2.05
2022-08-08T17:28:30.728Z,2.25
2022-08-08T17:31:39.023Z,2.50
2022-08-08T17:34:48.603Z,2.42
2022-08-08T17:37:00.114Z,3.03
2022-08-08T17:40:02.890Z,1.83
2022-08-08T17:42:15.868Z,2.40
2022-08-08T17:44:45.922Z,2.67
2022-08-08T17:47:23.315Z,2.75
2022-08-08T17:49:52.951Z,2.63
2022-08-08T17:52:28.143Z,2.08
2022-08-08T17:54:56.016Z,3.42
2022-08-08T17:57:24.843Z,3.10
2022-08-08T17:59:58.870Z,2.22
2022-08-08T18:02:29.925Z,2.80
2022-08-08T18:05:04.532Z,2.55
2022-08-08T18:08:03.414Z,2.42
2022-08-08T18:10:31.254Z,2.15
2022-08-08T18:13:01.867Z,2.20
2022-08-08T18:15:31.389Z,2.40
2022-08-08T18:18:09.215Z,2.38
2022-08-08T18:20:55.076Z,2.58
2022-08-08T18:23:26.586Z,2.25
2022-08-08T18:25:53.698Z,2.95
2022-08-08T18:28:24.311Z,2.88
2022-08-08T18:33:19.976Z,2.17
2022-08-08T18:36:11.502Z,2.25
2022-08-08T18:38:50.322Z,2.20
2022-08-08T18:41:19.267Z,2.63
2022-08-08T18:44:06.095Z,2.65
2022-08-08T18:46:54.554Z,2.10
2022-08-08T18:49:40.795Z,2.38
2022-08-08T18:52:18.457Z,2.53
2022-08-08T18:54:59.196Z,2.67
2022-08-08T18:57:31.493Z,2.25
2022-08-08T19:00:10.698Z,2.22
2022-08-08T19:02:48.394Z,2.35
2022-08-08T19:05:34.152Z,2.13
2022-08-08T19:08:24.446Z,1.92
2022-08-08T19:10:55.937Z,2.53
2022-08-08T19:13:24.433Z,2.08
2022-08-08T19:15:55.862Z,2.30
2022-08-08T19:18:32.633Z,2.58
2022-08-08T19:21:29.401Z,2.20
2022-08-08T19:23:58.452Z,2.60
2022-08-08T19:26:29.984Z,2.78
2022-08-08T19:28:58.911Z,2.78
2022-08-08T19:31:31.685Z,2.65
2022-08-08T19:34:36.408Z,2.70
2022-08-08T19:36:59.299Z,3.30
2022-08-08T19:39:30.701Z,3.20
2022-08-08T19:42:02.565Z,3.00
2022-08-08T19:44:45.860Z,3.05
2022-08-08T19:47:14.587Z,2.55
2022-08-08T19:49:43.387Z,2.67
2022-08-08T19:52:35.493Z,2.25
2022-08-08T19:55:12.329Z,2.60
2022-08-08T19:57:42.510Z,2.40
2022-08-08T20:00:32.964Z,3.33
2022-08-08T20:03:14.602Z,2.88
2022-08-08T20:06:13.539Z,3.42
2022-08-08T20:08:33.299Z,3.83
2022-08-08T20:11:01.377Z,2.72
2022-08-08T20:14:33.086Z,3.60
2022-08-08T20:16:20.172Z,3.15
2022-08-08T20:18:53.172Z,3.45
2022-08-08T20:21:25.243Z,3.03
2022-08-08T20:26:30.203Z,2.95
2022-08-08T20:29:04.756Z,2.50
2022-08-08T20:32:07.277Z,2.50
2022-08-08T20:34:29.370Z,2.72
2022-08-08T20:37:00.423Z,2.97
2022-08-08T20:39:39.231Z,2.70
2022-08-08T20:42:16.455Z,2.42
2022-08-08T20:44:43.512Z,2.90
2022-08-08T20:47:22.756Z,2.97
2022-08-08T20:49:54.165Z,3.05
2022-08-08T20:52:25.209Z,2.45
2022-08-08T20:54:52.265Z,2.47
2022-08-08T20:57:21.082Z,2.83
2022-08-08T20:59:49.332Z,3.10
2022-08-08T21:02:25.808Z,2.72
2022-08-08T21:05:00.717Z,2.65
2022-08-08T21:07:47.901Z,2.67
2022-08-08T21:10:17.973Z,2.80
2022-08-08T21:12:54.551Z,3.28
2022-08-08T21:16:06.320Z,3.50
2022-08-08T21:18:09.244Z,3.08
2022-08-08T21:20:39.316Z,2.95
2022-08-08T21:23:10.048Z,3.20
2022-08-08T21:25:40.671Z,3.20
2022-08-08T21:28:14.935Z,2.60
2022-08-08T21:30:49.468Z,2.90
2022-08-08T21:33:20.652Z,2.80
2022-08-08T21:36:17.270Z,4.25
2022-08-08T21:38:35.467Z,3.25
2022-08-08T21:41:02.555Z,3.22
2022-08-08T21:43:33.055Z,3.47
2022-08-08T21:48:05.193Z,3.85
2022-08-08T21:48:53.272Z,3.58
2022-08-08T21:54:17.077Z,3.28
2022-08-08T21:54:32.112Z,3.17
2022-08-08T21:57:03.156Z,3.17
2022-08-08T22:00:01.751Z,3.13
2022-08-08T22:02:23.554Z,2.97
2022-08-08T22:04:59.217Z,2.88
2022-08-08T22:07:34.816Z,3.30
2022-08-08T22:12:46.983Z,2.88
2022-08-08T22:15:14.131Z,3.20
2022-08-08T22:17:45.474Z,2.95
2022-08-08T22:20:18.769Z,3.07
2022-08-08T22:22:52.629Z,2.40
2022-08-08T22:25:25.252Z,3.13
2022-08-08T22:28:03.496Z,3.33
2022-08-08T22:30:33.520Z,3.10
2022-08-08T22:33:03.421Z,3.05
2022-08-08T22:36:05.178Z,3.63
2022-08-08T22:38:48.968Z,3.42
2022-08-08T22:41:21.511Z,2.55
2022-08-08T22:44:02.616Z,3.25
2022-08-08T22:46:39.805Z,2.75
2022-08-08T22:49:10.360Z,2.85
2022-08-08T22:51:42.415Z,4.03
2022-08-08T22:54:30.811Z,3.30
2022-08-08T22:57:11.552Z,2.78
2022-08-08T22:59:48.328Z,3.00
2022-08-08T23:02:28.910Z,3.10
2022-08-08T23:04:56.439Z,2.55
2022-08-08T23:07:51.351Z,2.75
2022-08-08T23:10:21.090Z,3.55
2022-08-08T23:12:51.582Z,3.00
2022-08-08T23:16:42.156Z,2.78
2022-08-08T23:18:11.949Z,2.92
2022-08-08T23:20:43.191Z,3.25
2022-08-08T23:23:13.889Z,3.10
2022-08-08T23:25:47.872Z,2.67
2022-08-08T23:28:18.627Z,2.58
2022-08-08T23:30:47.504Z,2.55
2022-08-08T23:33:35.714Z,3.05
2022-08-08T23:36:08.170Z,3.80
2022-08-08T23:38:44.040Z,2.80
2022-08-08T23:41:22.835Z,2.67
2022-08-08T23:43:56.646Z,2.95
2022-08-08T23:49:14.607Z,2.60
2022-08-08T23:52:04.996Z,2.75
2022-08-08T23:54:43.799Z,2.92
2022-08-08T23:57:27.796Z,2.78
